sensor_id;sensor_type;location;lat;lon;timestamp;temperature;humidity
70762;DHT22;58360;0.000;0.000;2023-08-07T00:06:49;14.90;99.90
70762;DHT22;58360;0.000;0.000;2023-08-07T00:14:25;14.70;99.90
70762;DHT22;58360;0.000;0.000;2023-08-07T00:16:51;14.80;99.90
70762;DHT22;58360;0.000;0.000;2023-08-07T00:19:16;14.50;99.90
70762;DHT22;58360;0.000;0.000;2023-08-07T00:21:42;14.50;99.90
70762;DHT22;58360;0.000;0.000;2023-08-07T00:24:08;14.60;99.90
70762;DHT22;58360;0.000;0.000;2023-08-07T00:26:33;14.40;99.90
70762;DHT22;58360;0.000;0.000;2023-08-07T00:28:59;14.00;99.90
70762;DHT22;58360;0.000;0.000;2023-08-07T00:34:00;14.10;99.90
70762;DHT22;58360;0.000;0.000;2023-08-07T00:36:25;14.10;99.90
70762;DHT22;58360;0.000;0.000;2023-08-07T00:38:54;14.10;99.90
70762;DHT22;58360;0.000;0.000;2023-08-07T00:41:20;14.00;99.90
70762;DHT22;58360;0.000;0.000;2023-08-07T00:43:45;14.00;99.90
70762;DHT22;58360;0.000;0.000;2023-08-07T00:46:11;14.00;99.90
70762;DHT22;58360;0.000;0.000;2023-08-07T00:56:24;14.50;99.90
70762;DHT22;58360;0.000;0.000;2023-08-07T00:58:50;14.40;99.90
70762;DHT22;58360;0.000;0.000;2023-08-07T01:01:15;14.40;99.90
70762;DHT22;58360;0.000;0.000;2023-08-07T01:03:41;14.40;99.90
70762;DHT22;58360;0.000;0.000;2023-08-07T01:06:07;14.40;99.90
70762;DHT22;58360;0.000;0.000;2023-08-07T01:08:32;14.30;99.90
70762;DHT22;58360;0.000;0.000;2023-08-07T01:16:21;14.10;99.90
70762;DHT22;58360;0.000;0.000;2023-08-07T01:18:50;14.20;99.90
70762;DHT22;58360;0.000;0.000;2023-08-07T01:21:17;14.10;99.90
70762;DHT22;58360;0.000;0.000;2023-08-07T01:26:19;14.00;99.90
70762;DHT22;58360;0.000;0.000;2023-08-07T01:28:46;14.00;99.90
70762;DHT22;58360;0.000;0.000;2023-08-07T01:31:14;14.20;99.90
70762;DHT22;58360;0.000;0.000;2023-08-07T01:33:43;14.00;99.90
70762;DHT22;58360;0.000;0.000;2023-08-07T01:36:12;14.10;99.90
70762;DHT22;58360;0.000;0.000;2023-08-07T01:38:39;14.00;99.90
70762;DHT22;58360;0.000;0.000;2023-08-07T01:43:41;13.90;99.90
70762;DHT22;58360;0.000;0.000;2023-08-07T01:46:06;13.90;99.90
70762;DHT22;58360;0.000;0.000;2023-08-07T01:48:32;13.80;99.90
70762;DHT22;58360;0.000;0.000;2023-08-07T01:50:58;13.80;99.90
70762;DHT22;58360;0.000;0.000;2023-08-07T01:53:23;13.90;99.90
70762;DHT22;58360;0.000;0.000;2023-08-07T01:55:49;13.80;99.90
70762;DHT22;58360;0.000;0.000;2023-08-07T01:58:15;13.80;99.90
70762;DHT22;58360;0.000;0.000;2023-08-07T02:00:40;14.00;99.90
70762;DHT22;58360;0.000;0.000;2023-08-07T02:03:06;14.00;99.90
70762;DHT22;58360;0.000;0.000;2023-08-07T02:05:32;14.10;99.90
70762;DHT22;58360;0.000;0.000;2023-08-07T02:07:58;14.00;99.90
70762;DHT22;58360;0.000;0.000;2023-08-07T02:10:23;14.10;99.90
70762;DHT22;58360;0.000;0.000;2023-08-07T02:12:49;14.00;99.90
70762;DHT22;58360;0.000;0.000;2023-08-07T02:15:15;14.00;99.90
70762;DHT22;58360;0.000;0.000;2023-08-07T02:17:41;13.90;99.90
70762;DHT22;58360;0.000;0.000;2023-08-07T02:20:07;13.90;99.90
70762;DHT22;58360;0.000;0.000;2023-08-07T02:22:33;13.90;99.90
70762;DHT22;58360;0.000;0.000;2023-08-07T02:24:59;13.90;99.90
70762;DHT22;58360;0.000;0.000;2023-08-07T02:27:25;13.90;99.90
70762;DHT22;58360;0.000;0.000;2023-08-07T02:29:51;13.80;99.90
70762;DHT22;58360;0.000;0.000;2023-08-07T02:32:16;13.70;99.90
70762;DHT22;58360;0.000;0.000;2023-08-07T02:34:42;13.70;99.90
70762;DHT22;58360;0.000;0.000;2023-08-07T02:37:08;13.70;99.90
70762;DHT22;58360;0.000;0.000;2023-08-07T02:39:34;13.60;99.90
70762;DHT22;58360;0.000;0.000;2023-08-07T02:42:00;13.50;99.90
70762;DHT22;58360;0.000;0.000;2023-08-07T02:44:26;13.70;99.90
70762;DHT22;58360;0.000;0.000;2023-08-07T02:46:51;13.80;99.90
70762;DHT22;58360;0.000;0.000;2023-08-07T02:49:17;13.50;99.90
70762;DHT22;58360;0.000;0.000;2023-08-07T02:51:43;13.50;99.90
70762;DHT22;58360;0.000;0.000;2023-08-07T02:54:09;13.40;99.90
70762;DHT22;58360;0.000;0.000;2023-08-07T02:56:34;13.50;99.90
70762;DHT22;58360;0.000;0.000;2023-08-07T02:59:00;13.40;99.90
70762;DHT22;58360;0.000;0.000;2023-08-07T03:01:27;13.60;99.90
70762;DHT22;58360;0.000;0.000;2023-08-07T03:03:53;13.60;99.90
70762;DHT22;58360;0.000;0.000;2023-08-07T03:06:18;13.50;99.90
70762;DHT22;58360;0.000;0.000;2023-08-07T03:08:44;13.50;99.90
70762;DHT22;58360;0.000;0.000;2023-08-07T03:11:10;13.60;99.90
70762;DHT22;58360;0.000;0.000;2023-08-07T03:13:36;13.60;99.90
70762;DHT22;58360;0.000;0.000;2023-08-07T03:16:05;13.70;99.90
70762;DHT22;58360;0.000;0.000;2023-08-07T03:18:31;13.70;99.90
70762;DHT22;58360;0.000;0.000;2023-08-07T03:20:57;13.70;99.90
70762;DHT22;58360;0.000;0.000;2023-08-07T03:23:26;13.70;99.90
70762;DHT22;58360;0.000;0.000;2023-08-07T03:26:02;13.70;99.90
70762;DHT22;58360;0.000;0.000;2023-08-07T03:28:28;13.80;99.90
70762;DHT22;58360;0.000;0.000;2023-08-07T03:30:54;13.80;99.90
70762;DHT22;58360;0.000;0.000;2023-08-07T03:33:20;13.80;99.90
70762;DHT22;58360;0.000;0.000;2023-08-07T03:35:45;13.90;99.90
70762;DHT22;58360;0.000;0.000;2023-08-07T03:38:11;13.90;99.90
70762;DHT22;58360;0.000;0.000;2023-08-07T03:40:37;13.90;99.90
70762;DHT22;58360;0.000;0.000;2023-08-07T03:43:03;13.90;99.90
70762;DHT22;58360;0.000;0.000;2023-08-07T03:45:28;14.00;99.90
70762;DHT22;58360;0.000;0.000;2023-08-07T03:47:54;14.10;99.90
70762;DHT22;58360;0.000;0.000;2023-08-07T03:50:20;14.10;99.90
70762;DHT22;58360;0.000;0.000;2023-08-07T03:52:46;14.10;99.90
70762;DHT22;58360;0.000;0.000;2023-08-07T03:55:11;14.10;99.90
70762;DHT22;58360;0.000;0.000;2023-08-07T03:57:37;14.10;99.90
70762;DHT22;58360;0.000;0.000;2023-08-07T04:00:03;14.10;99.90
70762;DHT22;58360;0.000;0.000;2023-08-07T04:02:29;14.30;99.90
70762;DHT22;58360;0.000;0.000;2023-08-07T04:04:55;14.20;99.90
70762;DHT22;58360;0.000;0.000;2023-08-07T04:07:21;14.10;99.90
70762;DHT22;58360;0.000;0.000;2023-08-07T04:09:47;14.00;99.90
70762;DHT22;58360;0.000;0.000;2023-08-07T04:12:13;14.00;99.90
70762;DHT22;58360;0.000;0.000;2023-08-07T04:14:39;14.00;99.90
70762;DHT22;58360;0.000;0.000;2023-08-07T04:17:04;14.00;99.90
70762;DHT22;58360;0.000;0.000;2023-08-07T04:19:30;14.10;99.90
70762;DHT22;58360;0.000;0.000;2023-08-07T04:21:56;14.10;99.90
70762;DHT22;58360;0.000;0.000;2023-08-07T04:24:22;14.10;99.90
70762;DHT22;58360;0.000;0.000;2023-08-07T04:26:47;14.10;99.90
70762;DHT22;58360;0.000;0.000;2023-08-07T04:29:13;14.10;99.90
70762;DHT22;58360;0.000;0.000;2023-08-07T04:31:39;14.30;99.90
70762;DHT22;58360;0.000;0.000;2023-08-07T04:34:05;14.00;99.90
70762;DHT22;58360;0.000;0.000;2023-08-07T04:36:30;14.20;99.90
70762;DHT22;58360;0.000;0.000;2023-08-07T04:38:56;14.10;99.90
70762;DHT22;58360;0.000;0.000;2023-08-07T04:41:22;14.00;99.90
70762;DHT22;58360;0.000;0.000;2023-08-07T04:43:48;14.10;99.90
70762;DHT22;58360;0.000;0.000;2023-08-07T04:46:14;14.20;99.90
70762;DHT22;58360;0.000;0.000;2023-08-07T04:48:40;14.20;99.90
70762;DHT22;58360;0.000;0.000;2023-08-07T04:51:06;14.00;99.90
70762;DHT22;58360;0.000;0.000;2023-08-07T04:53:31;14.10;99.90
70762;DHT22;58360;0.000;0.000;2023-08-07T04:55:59;13.90;99.90
70762;DHT22;58360;0.000;0.000;2023-08-07T04:58:24;13.80;99.90
70762;DHT22;58360;0.000;0.000;2023-08-07T05:00:56;13.70;99.90
70762;DHT22;58360;0.000;0.000;2023-08-07T05:03:23;13.70;99.90
70762;DHT22;58360;0.000;0.000;2023-08-07T05:05:51;13.90;99.90
70762;DHT22;58360;0.000;0.000;2023-08-07T05:08:23;13.90;99.90
70762;DHT22;58360;0.000;0.000;2023-08-07T05:10:48;13.90;99.90
70762;DHT22;58360;0.000;0.000;2023-08-07T05:13:14;13.90;99.90
70762;DHT22;58360;0.000;0.000;2023-08-07T05:15:40;13.80;99.90
70762;DHT22;58360;0.000;0.000;2023-08-07T05:18:06;13.90;99.90
70762;DHT22;58360;0.000;0.000;2023-08-07T05:20:32;13.60;99.90
70762;DHT22;58360;0.000;0.000;2023-08-07T05:22:58;13.80;99.90
70762;DHT22;58360;0.000;0.000;2023-08-07T05:25:23;13.90;99.90
70762;DHT22;58360;0.000;0.000;2023-08-07T05:27:49;13.70;99.90
70762;DHT22;58360;0.000;0.000;2023-08-07T05:30:16;13.80;99.90
70762;DHT22;58360;0.000;0.000;2023-08-07T05:32:45;13.80;99.90
70762;DHT22;58360;0.000;0.000;2023-08-07T05:35:11;13.70;99.90
70762;DHT22;58360;0.000;0.000;2023-08-07T05:37:37;14.00;99.90
70762;DHT22;58360;0.000;0.000;2023-08-07T05:40:03;14.10;99.90
70762;DHT22;58360;0.000;0.000;2023-08-07T05:42:29;14.10;99.90
70762;DHT22;58360;0.000;0.000;2023-08-07T05:44:55;14.20;99.90
70762;DHT22;58360;0.000;0.000;2023-08-07T05:47:20;14.20;99.90
70762;DHT22;58360;0.000;0.000;2023-08-07T05:49:46;14.30;99.90
70762;DHT22;58360;0.000;0.000;2023-08-07T05:52:14;14.30;99.90
70762;DHT22;58360;0.000;0.000;2023-08-07T05:54:43;14.30;99.90
70762;DHT22;58360;0.000;0.000;2023-08-07T05:57:08;14.20;99.90
70762;DHT22;58360;0.000;0.000;2023-08-07T05:59:34;14.20;99.90
70762;DHT22;58360;0.000;0.000;2023-08-07T06:02:01;14.30;99.90
70762;DHT22;58360;0.000;0.000;2023-08-07T06:04:27;14.40;99.90
70762;DHT22;58360;0.000;0.000;2023-08-07T06:06:53;14.50;99.90
70762;DHT22;58360;0.000;0.000;2023-08-07T06:09:19;14.60;99.90
70762;DHT22;58360;0.000;0.000;2023-08-07T06:11:47;14.60;99.90
70762;DHT22;58360;0.000;0.000;2023-08-07T06:14:13;14.50;99.90
70762;DHT22;58360;0.000;0.000;2023-08-07T06:16:38;14.70;99.90
70762;DHT22;58360;0.000;0.000;2023-08-07T06:19:04;14.70;99.90
70762;DHT22;58360;0.000;0.000;2023-08-07T06:21:30;14.70;99.90
70762;DHT22;58360;0.000;0.000;2023-08-07T06:23:56;14.90;99.90
70762;DHT22;58360;0.000;0.000;2023-08-07T06:26:22;15.00;99.90
70762;DHT22;58360;0.000;0.000;2023-08-07T06:28:48;15.10;99.90
70762;DHT22;58360;0.000;0.000;2023-08-07T06:31:15;15.50;99.90
70762;DHT22;58360;0.000;0.000;2023-08-07T06:33:40;15.90;99.50
70762;DHT22;58360;0.000;0.000;2023-08-07T06:36:06;16.40;99.10
70762;DHT22;58360;0.000;0.000;2023-08-07T06:38:33;17.10;97.50
70762;DHT22;58360;0.000;0.000;2023-08-07T06:40:59;17.40;96.90
70762;DHT22;58360;0.000;0.000;2023-08-07T06:43:25;17.60;95.90
70762;DHT22;58360;0.000;0.000;2023-08-07T06:45:51;17.90;95.80
70762;DHT22;58360;0.000;0.000;2023-08-07T06:48:17;17.90;95.50
70762;DHT22;58360;0.000;0.000;2023-08-07T06:50:43;18.10;96.10
70762;DHT22;58360;0.000;0.000;2023-08-07T06:53:09;18.90;95.10
70762;DHT22;58360;0.000;0.000;2023-08-07T06:55:35;19.50;93.80
70762;DHT22;58360;0.000;0.000;2023-08-07T06:58:00;20.00;92.90
70762;DHT22;58360;0.000;0.000;2023-08-07T07:00:26;20.50;92.40
70762;DHT22;58360;0.000;0.000;2023-08-07T07:02:51;21.10;90.20
70762;DHT22;58360;0.000;0.000;2023-08-07T07:05:17;21.30;90.70
70762;DHT22;58360;0.000;0.000;2023-08-07T07:07:42;21.50;87.20
70762;DHT22;58360;0.000;0.000;2023-08-07T07:10:08;21.90;87.40
70762;DHT22;58360;0.000;0.000;2023-08-07T07:12:33;22.30;85.50
70762;DHT22;58360;0.000;0.000;2023-08-07T07:14:59;22.40;82.60
70762;DHT22;58360;0.000;0.000;2023-08-07T07:17:24;22.20;85.10
70762;DHT22;58360;0.000;0.000;2023-08-07T07:19:50;22.00;85.90
70762;DHT22;58360;0.000;0.000;2023-08-07T07:22:15;21.70;86.00
70762;DHT22;58360;0.000;0.000;2023-08-07T07:24:41;21.40;85.90
70762;DHT22;58360;0.000;0.000;2023-08-07T07:27:06;20.60;87.60
70762;DHT22;58360;0.000;0.000;2023-08-07T07:29:32;19.90;90.20
70762;DHT22;58360;0.000;0.000;2023-08-07T07:31:57;19.50;90.90
70762;DHT22;58360;0.000;0.000;2023-08-07T07:34:23;19.20;91.00
70762;DHT22;58360;0.000;0.000;2023-08-07T07:36:48;19.00;91.20
70762;DHT22;58360;0.000;0.000;2023-08-07T07:39:14;18.70;91.50
70762;DHT22;58360;0.000;0.000;2023-08-07T07:41:40;18.60;93.00
70762;DHT22;58360;0.000;0.000;2023-08-07T07:44:05;19.40;92.00
70762;DHT22;58360;0.000;0.000;2023-08-07T07:46:31;20.50;90.60
70762;DHT22;58360;0.000;0.000;2023-08-07T07:48:58;21.60;86.50
70762;DHT22;58360;0.000;0.000;2023-08-07T07:51:24;22.10;85.80
70762;DHT22;58360;0.000;0.000;2023-08-07T07:53:49;23.00;84.90
70762;DHT22;58360;0.000;0.000;2023-08-07T07:56:15;23.40;83.20
70762;DHT22;58360;0.000;0.000;2023-08-07T07:58:40;23.80;81.20
70762;DHT22;58360;0.000;0.000;2023-08-07T08:01:06;24.00;79.90
70762;DHT22;58360;0.000;0.000;2023-08-07T08:03:32;23.60;78.40
70762;DHT22;58360;0.000;0.000;2023-08-07T08:05:57;22.70;81.60
70762;DHT22;58360;0.000;0.000;2023-08-07T08:08:23;22.00;83.20
70762;DHT22;58360;0.000;0.000;2023-08-07T08:10:49;21.40;84.20
70762;DHT22;58360;0.000;0.000;2023-08-07T08:13:16;20.70;85.40
70762;DHT22;58360;0.000;0.000;2023-08-07T08:15:42;20.30;86.30
70762;DHT22;58360;0.000;0.000;2023-08-07T08:18:08;20.00;88.50
70762;DHT22;58360;0.000;0.000;2023-08-07T08:20:33;19.70;88.40
70762;DHT22;58360;0.000;0.000;2023-08-07T08:22:59;19.70;89.50
70762;DHT22;58360;0.000;0.000;2023-08-07T08:25:25;19.70;89.10
70762;DHT22;58360;0.000;0.000;2023-08-07T08:27:50;20.90;86.90
70762;DHT22;58360;0.000;0.000;2023-08-07T08:30:16;22.60;84.60
70762;DHT22;58360;0.000;0.000;2023-08-07T08:32:42;23.90;79.50
70762;DHT22;58360;0.000;0.000;2023-08-07T08:35:11;24.30;76.60
70762;DHT22;58360;0.000;0.000;2023-08-07T08:37:37;25.10;75.60
70762;DHT22;58360;0.000;0.000;2023-08-07T08:40:02;26.10;76.60
70762;DHT22;58360;0.000;0.000;2023-08-07T08:42:28;27.10;70.70
70762;DHT22;58360;0.000;0.000;2023-08-07T08:44:56;28.00;70.00
70762;DHT22;58360;0.000;0.000;2023-08-07T08:47:22;28.90;64.40
70762;DHT22;58360;0.000;0.000;2023-08-07T08:49:54;29.10;64.60
70762;DHT22;58360;0.000;0.000;2023-08-07T08:52:21;29.30;61.80
70762;DHT22;58360;0.000;0.000;2023-08-07T08:54:47;29.00;61.50
70762;DHT22;58360;0.000;0.000;2023-08-07T08:57:16;29.20;60.40
70762;DHT22;58360;0.000;0.000;2023-08-07T08:59:45;29.80;59.80
70762;DHT22;58360;0.000;0.000;2023-08-07T09:02:10;30.40;56.60
70762;DHT22;58360;0.000;0.000;2023-08-07T09:04:36;30.70;56.80
70762;DHT22;58360;0.000;0.000;2023-08-07T09:07:01;31.40;57.00
70762;DHT22;58360;0.000;0.000;2023-08-07T09:09:27;30.80;54.90
70762;DHT22;58360;0.000;0.000;2023-08-07T09:11:53;30.50;57.80
70762;DHT22;58360;0.000;0.000;2023-08-07T09:14:22;30.00;54.40
70762;DHT22;58360;0.000;0.000;2023-08-07T09:16:47;30.00;56.10
70762;DHT22;58360;0.000;0.000;2023-08-07T09:19:14;30.50;54.10
70762;DHT22;58360;0.000;0.000;2023-08-07T09:21:39;31.20;56.90
70762;DHT22;58360;0.000;0.000;2023-08-07T09:24:05;31.30;52.60
70762;DHT22;58360;0.000;0.000;2023-08-07T09:26:32;30.80;52.70
70762;DHT22;58360;0.000;0.000;2023-08-07T09:28:58;29.60;53.50
70762;DHT22;58360;0.000;0.000;2023-08-07T09:31:24;28.90;55.10
70762;DHT22;58360;0.000;0.000;2023-08-07T09:34:00;28.20;58.20
70762;DHT22;58360;0.000;0.000;2023-08-07T09:36:26;29.20;54.20
70762;DHT22;58360;0.000;0.000;2023-08-07T09:38:52;29.80;52.60
70762;DHT22;58360;0.000;0.000;2023-08-07T09:41:18;30.40;53.50
70762;DHT22;58360;0.000;0.000;2023-08-07T09:43:44;31.40;51.60
70762;DHT22;58360;0.000;0.000;2023-08-07T09:46:10;32.60;52.10
70762;DHT22;58360;0.000;0.000;2023-08-07T09:48:39;32.10;49.60
70762;DHT22;58360;0.000;0.000;2023-08-07T09:51:05;32.00;50.80
70762;DHT22;58360;0.000;0.000;2023-08-07T09:53:30;32.70;55.30
70762;DHT22;58360;0.000;0.000;2023-08-07T09:55:57;33.80;49.80
70762;DHT22;58360;0.000;0.000;2023-08-07T09:58:22;34.60;49.90
70762;DHT22;58360;0.000;0.000;2023-08-07T10:00:48;34.70;46.30
70762;DHT22;58360;0.000;0.000;2023-08-07T10:03:14;33.10;46.20
70762;DHT22;58360;0.000;0.000;2023-08-07T10:05:41;31.50;46.60
70762;DHT22;58360;0.000;0.000;2023-08-07T10:08:07;30.50;55.40
70762;DHT22;58360;0.000;0.000;2023-08-07T10:10:33;30.60;49.40
70762;DHT22;58360;0.000;0.000;2023-08-07T10:13:03;30.00;50.20
70762;DHT22;58360;0.000;0.000;2023-08-07T10:15:29;29.30;54.10
70762;DHT22;58360;0.000;0.000;2023-08-07T10:17:54;29.80;52.20
70762;DHT22;58360;0.000;0.000;2023-08-07T10:20:20;29.60;50.70
70762;DHT22;58360;0.000;0.000;2023-08-07T10:22:46;28.10;52.80
70762;DHT22;58360;0.000;0.000;2023-08-07T10:25:13;27.70;53.70
70762;DHT22;58360;0.000;0.000;2023-08-07T10:27:39;29.00;54.30
70762;DHT22;58360;0.000;0.000;2023-08-07T10:30:06;29.60;51.20
70762;DHT22;58360;0.000;0.000;2023-08-07T10:32:32;28.90;52.10
70762;DHT22;58360;0.000;0.000;2023-08-07T10:34:58;29.20;52.70
70762;DHT22;58360;0.000;0.000;2023-08-07T10:40:03;29.90;51.20
70762;DHT22;58360;0.000;0.000;2023-08-07T10:42:33;28.60;54.30
70762;DHT22;58360;0.000;0.000;2023-08-07T10:45:00;28.20;55.20
70762;DHT22;58360;0.000;0.000;2023-08-07T10:47:32;28.90;53.70
70762;DHT22;58360;0.000;0.000;2023-08-07T10:49:58;29.20;52.50
70762;DHT22;58360;0.000;0.000;2023-08-07T10:52:24;30.00;51.30
70762;DHT22;58360;0.000;0.000;2023-08-07T10:54:50;29.50;52.90
70762;DHT22;58360;0.000;0.000;2023-08-07T10:57:17;28.80;52.40
70762;DHT22;58360;0.000;0.000;2023-08-07T10:59:49;29.10;51.90
70762;DHT22;58360;0.000;0.000;2023-08-07T11:02:21;29.20;54.20
70762;DHT22;58360;0.000;0.000;2023-08-07T11:04:48;29.70;50.10
70762;DHT22;58360;0.000;0.000;2023-08-07T11:07:22;30.70;55.10
70762;DHT22;58360;0.000;0.000;2023-08-07T11:09:48;31.30;49.60
70762;DHT22;58360;0.000;0.000;2023-08-07T11:12:13;30.70;49.90
70762;DHT22;58360;0.000;0.000;2023-08-07T11:14:39;31.90;51.70
70762;DHT22;58360;0.000;0.000;2023-08-07T11:17:06;32.30;49.90
70762;DHT22;58360;0.000;0.000;2023-08-07T11:19:31;32.20;47.10
70762;DHT22;58360;0.000;0.000;2023-08-07T11:21:58;31.70;48.90
70762;DHT22;58360;0.000;0.000;2023-08-07T11:24:23;31.90;47.20
70762;DHT22;58360;0.000;0.000;2023-08-07T11:26:49;31.80;48.50
70762;DHT22;58360;0.000;0.000;2023-08-07T11:29:17;30.60;46.90
70762;DHT22;58360;0.000;0.000;2023-08-07T11:31:43;29.30;49.80
70762;DHT22;58360;0.000;0.000;2023-08-07T11:34:09;28.70;51.40
70762;DHT22;58360;0.000;0.000;2023-08-07T11:36:40;29.30;50.20
70762;DHT22;58360;0.000;0.000;2023-08-07T11:39:06;30.60;50.10
70762;DHT22;58360;0.000;0.000;2023-08-07T11:41:31;31.00;46.80
70762;DHT22;58360;0.000;0.000;2023-08-07T11:43:57;30.40;50.00
70762;DHT22;58360;0.000;0.000;2023-08-07T11:46:23;29.10;50.80
70762;DHT22;58360;0.000;0.000;2023-08-07T11:48:48;28.70;49.60
70762;DHT22;58360;0.000;0.000;2023-08-07T11:51:14;29.20;53.40
70762;DHT22;58360;0.000;0.000;2023-08-07T11:53:40;30.60;50.10
70762;DHT22;58360;0.000;0.000;2023-08-07T11:56:13;31.10;47.00
70762;DHT22;58360;0.000;0.000;2023-08-07T11:58:47;30.60;48.30
70762;DHT22;58360;0.000;0.000;2023-08-07T12:01:14;29.70;49.50
70762;DHT22;58360;0.000;0.000;2023-08-07T12:03:50;28.70;50.00
70762;DHT22;58360;0.000;0.000;2023-08-07T12:06:15;27.80;50.20
70762;DHT22;58360;0.000;0.000;2023-08-07T12:08:41;27.80;52.80
70762;DHT22;58360;0.000;0.000;2023-08-07T12:11:11;27.80;52.00
70762;DHT22;58360;0.000;0.000;2023-08-07T12:13:37;27.30;52.80
70762;DHT22;58360;0.000;0.000;2023-08-07T12:16:03;26.70;51.20
70762;DHT22;58360;0.000;0.000;2023-08-07T12:18:29;26.60;54.60
70762;DHT22;58360;0.000;0.000;2023-08-07T12:21:02;27.20;52.80
70762;DHT22;58360;0.000;0.000;2023-08-07T12:23:29;27.20;53.80
70762;DHT22;58360;0.000;0.000;2023-08-07T12:25:54;26.90;52.60
70762;DHT22;58360;0.000;0.000;2023-08-07T12:28:20;26.40;56.70
70762;DHT22;58360;0.000;0.000;2023-08-07T12:30:46;26.50;56.00
70762;DHT22;58360;0.000;0.000;2023-08-07T12:33:12;28.00;56.70
70762;DHT22;58360;0.000;0.000;2023-08-07T12:35:38;29.40;53.10
70762;DHT22;58360;0.000;0.000;2023-08-07T12:38:03;29.90;51.30
70762;DHT22;58360;0.000;0.000;2023-08-07T12:40:32;29.40;51.80
70762;DHT22;58360;0.000;0.000;2023-08-07T12:42:58;28.60;52.30
70762;DHT22;58360;0.000;0.000;2023-08-07T12:45:23;27.70;54.20
70762;DHT22;58360;0.000;0.000;2023-08-07T12:47:49;28.70;54.90
70762;DHT22;58360;0.000;0.000;2023-08-07T12:50:14;29.50;52.10
70762;DHT22;58360;0.000;0.000;2023-08-07T12:52:40;29.60;52.60
70762;DHT22;58360;0.000;0.000;2023-08-07T12:55:05;30.30;49.30
70762;DHT22;58360;0.000;0.000;2023-08-07T12:57:32;31.40;52.90
70762;DHT22;58360;0.000;0.000;2023-08-07T12:59:57;31.30;50.00
70762;DHT22;58360;0.000;0.000;2023-08-07T13:02:23;30.60;48.30
70762;DHT22;58360;0.000;0.000;2023-08-07T13:04:48;30.10;51.80
70762;DHT22;58360;0.000;0.000;2023-08-07T13:07:14;30.60;51.20
70762;DHT22;58360;0.000;0.000;2023-08-07T13:09:39;31.00;51.90
70762;DHT22;58360;0.000;0.000;2023-08-07T13:12:05;30.90;50.50
70762;DHT22;58360;0.000;0.000;2023-08-07T13:14:31;31.40;49.80
70762;DHT22;58360;0.000;0.000;2023-08-07T13:16:59;31.30;47.90
70762;DHT22;58360;0.000;0.000;2023-08-07T13:19:25;30.30;49.30
70762;DHT22;58360;0.000;0.000;2023-08-07T13:21:50;29.30;52.50
70762;DHT22;58360;0.000;0.000;2023-08-07T13:24:16;27.90;53.20
70762;DHT22;58360;0.000;0.000;2023-08-07T13:26:41;27.70;54.60
70762;DHT22;58360;0.000;0.000;2023-08-07T13:29:13;28.10;53.50
70762;DHT22;58360;0.000;0.000;2023-08-07T13:31:39;27.30;53.60
70762;DHT22;58360;0.000;0.000;2023-08-07T13:34:06;27.30;56.20
70762;DHT22;58360;0.000;0.000;2023-08-07T13:36:36;28.50;57.50
70762;DHT22;58360;0.000;0.000;2023-08-07T13:39:02;29.80;52.80
70762;DHT22;58360;0.000;0.000;2023-08-07T13:41:28;30.60;51.10
70762;DHT22;58360;0.000;0.000;2023-08-07T13:43:53;29.90;51.50
70762;DHT22;58360;0.000;0.000;2023-08-07T13:46:19;28.80;50.80
70762;DHT22;58360;0.000;0.000;2023-08-07T13:48:45;28.00;53.00
70762;DHT22;58360;0.000;0.000;2023-08-07T13:51:14;27.50;53.60
70762;DHT22;58360;0.000;0.000;2023-08-07T13:53:39;27.00;54.90
70762;DHT22;58360;0.000;0.000;2023-08-07T13:56:05;27.10;58.70
70762;DHT22;58360;0.000;0.000;2023-08-07T13:58:32;28.20;54.10
70762;DHT22;58360;0.000;0.000;2023-08-07T14:00:57;28.40;56.70
70762;DHT22;58360;0.000;0.000;2023-08-07T14:03:23;29.20;56.50
70762;DHT22;58360;0.000;0.000;2023-08-07T14:05:49;29.60;54.80
70762;DHT22;58360;0.000;0.000;2023-08-07T14:08:15;29.50;54.90
70762;DHT22;58360;0.000;0.000;2023-08-07T14:10:41;29.20;54.30
70762;DHT22;58360;0.000;0.000;2023-08-07T14:13:07;28.30;54.60
70762;DHT22;58360;0.000;0.000;2023-08-07T14:15:32;27.70;55.40
70762;DHT22;58360;0.000;0.000;2023-08-07T14:17:58;27.20;53.80
70762;DHT22;58360;0.000;0.000;2023-08-07T14:20:27;26.90;59.00
70762;DHT22;58360;0.000;0.000;2023-08-07T14:22:52;27.60;57.50
70762;DHT22;58360;0.000;0.000;2023-08-07T14:25:21;28.40;58.00
70762;DHT22;58360;0.000;0.000;2023-08-07T14:27:47;28.70;55.20
70762;DHT22;58360;0.000;0.000;2023-08-07T14:30:13;28.70;54.20
70762;DHT22;58360;0.000;0.000;2023-08-07T14:32:41;28.30;54.60
70762;DHT22;58360;0.000;0.000;2023-08-07T14:35:13;27.50;55.00
70762;DHT22;58360;0.000;0.000;2023-08-07T14:37:41;27.00;56.00
70762;DHT22;58360;0.000;0.000;2023-08-07T14:40:07;26.90;56.70
70762;DHT22;58360;0.000;0.000;2023-08-07T14:42:39;27.50;55.70
70762;DHT22;58360;0.000;0.000;2023-08-07T14:45:05;28.10;54.40
70762;DHT22;58360;0.000;0.000;2023-08-07T14:47:30;28.20;55.50
70762;DHT22;58360;0.000;0.000;2023-08-07T14:49:56;27.60;54.40
70762;DHT22;58360;0.000;0.000;2023-08-07T14:52:21;27.40;55.00
70762;DHT22;58360;0.000;0.000;2023-08-07T14:54:47;27.70;58.60
70762;DHT22;58360;0.000;0.000;2023-08-07T14:57:12;28.10;57.90
70762;DHT22;58360;0.000;0.000;2023-08-07T14:59:38;28.10;55.50
70762;DHT22;58360;0.000;0.000;2023-08-07T15:02:03;27.90;54.60
70762;DHT22;58360;0.000;0.000;2023-08-07T15:04:32;27.30;54.10
70762;DHT22;58360;0.000;0.000;2023-08-07T15:06:57;26.70;55.60
70762;DHT22;58360;0.000;0.000;2023-08-07T15:09:23;26.50;56.80
70762;DHT22;58360;0.000;0.000;2023-08-07T15:11:48;26.80;56.70
70762;DHT22;58360;0.000;0.000;2023-08-07T15:14:14;27.20;58.20
70762;DHT22;58360;0.000;0.000;2023-08-07T15:16:40;27.50;56.00
70762;DHT22;58360;0.000;0.000;2023-08-07T15:19:06;27.80;57.60
70762;DHT22;58360;0.000;0.000;2023-08-07T15:21:31;28.10;56.10
70762;DHT22;58360;0.000;0.000;2023-08-07T15:23:57;28.20;53.50
70762;DHT22;58360;0.000;0.000;2023-08-07T15:26:22;27.80;53.80
70762;DHT22;58360;0.000;0.000;2023-08-07T15:28:48;26.90;55.30
70762;DHT22;58360;0.000;0.000;2023-08-07T15:31:13;26.10;56.20
70762;DHT22;58360;0.000;0.000;2023-08-07T15:33:39;25.80;55.80
70762;DHT22;58360;0.000;0.000;2023-08-07T15:36:05;25.80;58.10
70762;DHT22;58360;0.000;0.000;2023-08-07T15:38:30;25.90;57.70
70762;DHT22;58360;0.000;0.000;2023-08-07T15:40:56;25.90;57.20
70762;DHT22;58360;0.000;0.000;2023-08-07T15:43:21;25.60;57.80
70762;DHT22;58360;0.000;0.000;2023-08-07T15:45:50;25.20;57.90
70762;DHT22;58360;0.000;0.000;2023-08-07T15:48:15;24.80;57.60
70762;DHT22;58360;0.000;0.000;2023-08-07T15:50:41;24.70;58.20
70762;DHT22;58360;0.000;0.000;2023-08-07T15:53:06;24.60;58.10
70762;DHT22;58360;0.000;0.000;2023-08-07T15:55:32;24.60;58.80
70762;DHT22;58360;0.000;0.000;2023-08-07T15:58:00;24.60;58.50
70762;DHT22;58360;0.000;0.000;2023-08-07T16:00:27;24.90;61.40
70762;DHT22;58360;0.000;0.000;2023-08-07T16:02:54;25.20;60.10
70762;DHT22;58360;0.000;0.000;2023-08-07T16:05:20;25.20;58.40
70762;DHT22;58360;0.000;0.000;2023-08-07T16:07:49;24.90;58.10
70762;DHT22;58360;0.000;0.000;2023-08-07T16:10:16;24.70;58.70
70762;DHT22;58360;0.000;0.000;2023-08-07T16:12:41;24.70;60.00